Time;durP1;ratioP1;P1;durP2;ratioP2;P2;SDS_P1;SDS_P2;PMS_P1;PMS_P2;Temp;Humidity;BMP_temperature;BMP_pressure;BME280_temperature;BME280_humidity;BME280_pressure;Samples;Min_cycle;Max_cycle;Signal;HPM_P1;HPM_P2
2023/06/26 00:01:31;;;;;;;9.88;8.88;;;20.00;52.20;;;;;;5012913;28;20470;-74
2023/06/26 00:03:57;;;;;;;10.60;9.27;;;20.00;52.30;;;;;;5012543;28;20064;-81
2023/06/26 00:06:25;;;;;;;9.32;8.38;;;19.90;52.50;;;;;;5012763;28;20105;-80
2023/06/26 00:08:54;;;;;;;11.13;8.80;;;19.90;52.70;;;;;;5012520;28;20375;-81
2023/06/26 00:11:20;;;;;;;10.57;9.48;;;19.90;52.90;;;;;;4995148;28;20387;-81
2023/06/26 00:13:46;;;;;;;10.48;9.07;;;19.90;53.00;;;;;;5013092;28;20032;-80
2023/06/26 00:16:11;;;;;;;10.98;9.15;;;19.80;53.10;;;;;;5014560;28;20105;-81
2023/06/26 00:18:37;;;;;;;10.73;9.15;;;19.80;53.20;;;;;;5017373;28;20042;-79
2023/06/26 00:21:02;;;;;;;10.07;9.05;;;19.70;53.50;;;;;;5000203;28;20332;-77
2023/06/26 00:23:28;;;;;;;15.52;9.35;;;19.70;53.50;;;;;;5013590;28;20493;-79
2023/06/26 00:25:53;;;;;;;10.35;9.18;;;19.70;53.50;;;;;;5012667;28;20018;-73
2023/06/26 00:28:19;;;;;;;9.75;8.70;;;19.60;53.60;;;;;;5012396;28;20462;-78
2023/06/26 00:30:44;;;;;;;11.32;8.98;;;19.60;53.60;;;;;;5012543;28;20537;-71
2023/06/26 00:33:10;;;;;;;11.00;9.35;;;19.50;53.90;;;;;;5012503;28;20044;-72
2023/06/26 00:35:36;;;;;;;9.60;8.60;;;19.50;54.00;;;;;;5012492;28;20026;-81
2023/06/26 00:38:01;;;;;;;13.20;9.10;;;19.50;54.30;;;;;;5012490;28;20375;-80
2023/06/26 00:40:27;;;;;;;10.55;8.85;;;19.40;54.40;;;;;;5014990;28;20030;-74
2023/06/26 00:42:53;;;;;;;10.35;9.07;;;19.40;54.50;;;;;;4998229;28;20069;-81
2023/06/26 00:45:19;;;;;;;10.80;9.18;;;19.40;54.60;;;;;;5015979;28;20029;-81
2023/06/26 00:47:44;;;;;;;10.55;9.45;;;19.30;54.80;;;;;;5015786;28;20021;-81
2023/06/26 00:50:11;;;;;;;11.90;8.38;;;19.30;54.50;;;;;;5028302;28;20048;-82
2023/06/26 00:52:37;;;;;;;9.75;8.65;;;19.40;54.60;;;;;;5055554;28;20031;-82
2023/06/26 00:55:04;;;;;;;12.18;9.55;;;19.30;54.70;;;;;;5055643;28;20025;-81
2023/06/26 00:57:31;;;;;;;10.05;9.00;;;19.20;54.80;;;;;;5055340;28;20025;-72
2023/06/26 00:59:57;;;;;;;10.50;8.35;;;19.20;54.90;;;;;;5055545;28;20153;-79
2023/06/26 01:02:22;;;;;;;9.82;8.77;;;19.20;55.10;;;;;;5055657;28;20056;-80
2023/06/26 01:04:49;;;;;;;10.75;8.50;;;19.10;55.20;;;;;;5055480;28;20036;-79
2023/06/26 01:07:18;;;;;;;9.95;8.38;;;19.10;55.30;;;;;;5055397;28;20044;-81
2023/06/26 01:09:45;;;;;;;10.57;8.75;;;19.10;55.20;;;;;;5055380;28;20033;-81
2023/06/26 01:12:11;;;;;;;11.57;8.60;;;19.00;55.10;;;;;;5055282;28;20033;-81
2023/06/26 01:14:37;;;;;;;9.57;8.63;;;19.00;55.20;;;;;;5037337;28;20021;-81
2023/06/26 01:17:04;;;;;;;12.02;9.15;;;19.00;55.20;;;;;;5055332;28;20025;-82
2023/06/26 01:19:33;;;;;;;10.98;9.10;;;18.90;55.40;;;;;;5054725;28;20040;-77
2023/06/26 01:22:14;;;;;;;11.18;9.20;;;18.80;55.60;;;;;;5055353;28;20025;-76
2023/06/26 01:24:49;;;;;;;10.80;9.00;;;18.80;55.70;;;;;;5054906;28;20123;-81
2023/06/26 01:27:15;;;;;;;9.82;8.85;;;18.80;55.60;;;;;;5036973;28;20025;-78
2023/06/26 01:29:42;;;;;;;9.73;8.73;;;18.80;55.80;;;;;;5055024;28;20507;-80
2023/06/26 01:32:08;;;;;;;12.23;8.57;;;18.80;55.90;;;;;;5054823;28;20031;-78
2023/06/26 01:34:35;;;;;;;9.55;8.57;;;18.70;56.10;;;;;;5036895;28;20036;-72
2023/06/26 01:37:00;;;;;;;11.63;9.07;;;18.70;56.50;;;;;;5054798;28;20027;-73
2023/06/26 01:39:26;;;;;;;10.45;9.32;;;18.60;56.40;;;;;;5054621;28;20041;-77
2023/06/26 01:41:51;;;;;;;9.23;8.30;;;18.60;56.40;;;;;;5054549;28;20040;-78
2023/06/26 01:44:28;;;;;;;10.48;9.43;;;18.50;56.50;;;;;;5054578;28;20025;-77
2023/06/26 01:47:02;;;;;;;11.38;9.15;;;18.50;56.60;;;;;;5054463;28;20029;-81
2023/06/26 01:49:28;;;;;;;10.50;8.88;;;18.40;56.40;;;;;;5036655;28;20378;-81
2023/06/26 01:52:23;;;;;;;9.77;8.77;;;18.50;56.80;;;;;;5053247;28;20031;-79
2023/06/26 01:55:11;;;;;;;11.20;9.40;;;18.40;56.70;;;;;;5054294;28;20028;-76
2023/06/26 01:57:39;;;;;;;10.13;9.05;;;18.50;56.90;;;;;;5054307;28;20071;-76
2023/06/26 02:00:06;;;;;;;9.35;8.32;;;18.40;56.70;;;;;;5054071;28;20040;-74
2023/06/26 02:02:31;;;;;;;9.88;8.88;;;18.40;56.90;;;;;;5054208;28;20024;-73
2023/06/26 02:04:57;;;;;;;12.10;9.32;;;18.40;57.10;;;;;;5054213;28;20414;-80
2023/06/26 02:07:22;;;;;;;12.75;9.32;;;18.30;57.30;;;;;;5054418;28;20021;-77
2023/06/26 02:09:48;;;;;;;9.93;8.50;;;18.30;57.40;;;;;;5054070;28;20041;-76
2023/06/26 02:12:14;;;;;;;10.60;8.65;;;18.20;57.20;;;;;;5053982;28;20029;-72
2023/06/26 02:14:39;;;;;;;10.57;9.30;;;18.10;57.60;;;;;;5053915;28;20029;-72
2023/06/26 02:17:05;;;;;;;9.73;8.70;;;18.10;57.50;;;;;;5053861;28;20032;-72
2023/06/26 02:19:31;;;;;;;9.80;8.55;;;18.10;57.50;;;;;;5053666;28;20480;-72
2023/06/26 02:21:56;;;;;;;9.68;8.68;;;18.10;57.60;;;;;;5053836;28;20102;-72
2023/06/26 02:24:22;;;;;;;11.32;9.15;;;18.10;57.60;;;;;;5053710;28;20090;-73
2023/06/26 02:26:49;;;;;;;11.07;8.52;;;18.10;57.70;;;;;;5053738;28;20021;-72
2023/06/26 02:29:17;;;;;;;10.45;8.68;;;18.00;57.70;;;;;;5053669;28;20021;-72
2023/06/26 02:31:42;;;;;;;9.73;8.73;;;18.00;57.70;;;;;;5035728;28;20032;-74
2023/06/26 02:34:08;;;;;;;11.88;8.95;;;18.00;57.70;;;;;;5053652;28;20029;-73
2023/06/26 02:36:33;;;;;;;11.43;9.00;;;18.10;57.70;;;;;;5053473;28;20025;-80
2023/06/26 02:38:59;;;;;;;11.70;9.18;;;18.10;57.80;;;;;;5053458;28;20071;-73
2023/06/26 02:41:24;;;;;;;10.68;8.80;;;18.10;57.80;;;;;;5053477;28;20021;-73
2023/06/26 02:43:50;;;;;;;11.18;8.77;;;18.10;57.90;;;;;;5053361;28;20025;-73
2023/06/26 02:46:15;;;;;;;10.48;8.85;;;18.00;57.70;;;;;;5053285;28;20470;-72
2023/06/26 02:48:41;;;;;;;12.27;9.32;;;18.10;57.80;;;;;;5053323;28;20397;-73
2023/06/26 02:51:07;;;;;;;9.40;8.50;;;18.10;57.90;;;;;;5053290;28;20032;-75
2023/06/26 02:53:33;;;;;;;9.35;8.45;;;18.00;57.90;;;;;;5053282;28;20477;-71
2023/06/26 02:55:58;;;;;;;12.52;9.23;;;18.00;57.80;;;;;;5053129;28;20090;-75
2023/06/26 02:58:24;;;;;;;10.38;9.25;;;17.90;58.10;;;;;;5052936;28;20060;-75
2023/06/26 03:00:50;;;;;;;9.80;8.30;;;17.90;58.20;;;;;;5053136;28;20115;-71
2023/06/26 03:03:15;;;;;;;10.38;9.15;;;17.90;58.20;;;;;;5052856;28;20070;-78
2023/06/26 03:05:41;;;;;;;9.90;8.90;;;17.90;58.10;;;;;;5053024;28;20021;-75
2023/06/26 03:08:06;;;;;;;10.25;9.15;;;17.90;58.10;;;;;;5052777;28;20039;-72
2023/06/26 03:10:32;;;;;;;10.05;8.95;;;18.00;58.00;;;;;;5053021;28;20035;-72
2023/06/26 03:12:58;;;;;;;10.65;9.05;;;18.00;58.10;;;;;;5052723;28;20021;-74
2023/06/26 03:15:23;;;;;;;9.80;8.60;;;17.90;58.40;;;;;;5052770;28;20454;-72
2023/06/26 03:17:49;;;;;;;10.35;9.20;;;17.80;58.60;;;;;;5052834;28;20090;-72
2023/06/26 03:20:15;;;;;;;10.55;8.82;;;17.80;58.60;;;;;;5052806;28;20110;-72
2023/06/26 03:22:40;;;;;;;9.30;8.27;;;17.80;58.60;;;;;;5053099;28;20025;-72
2023/06/26 03:25:06;;;;;;;10.68;9.57;;;17.80;58.70;;;;;;5052732;28;20079;-72
2023/06/26 03:27:32;;;;;;;9.55;8.38;;;17.80;58.60;;;;;;5052626;28;20023;-73
2023/06/26 03:29:57;;;;;;;10.30;9.20;;;17.70;58.80;;;;;;5052854;28;20025;-73
2023/06/26 03:32:23;;;;;;;10.57;8.25;;;17.60;58.90;;;;;;5052529;28;20082;-73
2023/06/26 03:34:48;;;;;;;10.10;9.05;;;17.70;58.70;;;;;;5052523;28;20025;-73
2023/06/26 03:37:14;;;;;;;11.25;8.75;;;17.70;59.00;;;;;;5052661;28;20029;-71
2023/06/26 03:39:39;;;;;;;11.55;8.90;;;17.70;59.10;;;;;;5052391;28;20121;-71
2023/06/26 03:42:05;;;;;;;12.23;8.68;;;17.60;59.10;;;;;;5034632;28;20135;-71
2023/06/26 03:44:31;;;;;;;9.85;8.40;;;17.60;59.40;;;;;;5052466;28;20040;-71
2023/06/26 03:46:56;;;;;;;10.35;8.90;;;17.60;59.40;;;;;;5052462;28;20025;-71
2023/06/26 03:49:22;;;;;;;10.30;9.15;;;17.60;59.30;;;;;;5052364;28;20040;-72
2023/06/26 03:51:47;;;;;;;9.85;8.85;;;17.60;59.40;;;;;;5052208;28;20028;-71
2023/06/26 03:54:13;;;;;;;9.70;8.57;;;17.60;59.50;;;;;;5052416;28;20462;-71
2023/06/26 03:56:39;;;;;;;10.77;8.68;;;17.50;59.80;;;;;;5052655;28;20654;-71
2023/06/26 03:59:04;;;;;;;9.60;8.60;;;17.50;59.80;;;;;;5054747;28;20025;-71
2023/06/26 04:01:30;;;;;;;10.52;8.57;;;17.60;59.60;;;;;;5052250;28;20078;-71
2023/06/26 04:03:55;;;;;;;12.13;9.02;;;17.60;59.40;;;;;;5052026;28;20092;-71
2023/06/26 04:06:21;;;;;;;9.63;8.63;;;17.60;59.60;;;;;;5034289;28;20032;-73
2023/06/26 04:08:46;;;;;;;10.35;8.98;;;17.60;59.60;;;;;;5034370;28;20501;-72
2023/06/26 04:11:12;;;;;;;11.57;9.15;;;17.60;59.50;;;;;;5052108;28;20032;-72
2023/06/26 04:13:37;;;;;;;10.32;8.50;;;17.70;59.50;;;;;;5052228;28;20029;-71
2023/06/26 04:16:03;;;;;;;9.55;8.55;;;17.70;59.40;;;;;;5055513;28;20021;-72
2023/06/26 04:18:29;;;;;;;10.77;8.75;;;17.70;59.40;;;;;;5056017;28;20044;-80
2023/06/26 04:21:11;;;;;;;10.70;9.10;;;17.80;59.10;;;;;;5056132;28;20029;-81
2023/06/26 04:23:37;;;;;;;9.30;8.27;;;17.80;58.80;;;;;;5055938;28;20057;-77
2023/06/26 04:26:07;;;;;;;9.77;8.60;;;17.90;58.50;;;;;;5055784;28;20361;-75
2023/06/26 04:28:33;;;;;;;10.50;8.57;;;17.90;58.30;;;;;;5037966;28;20026;-79
2023/06/26 04:30:59;;;;;;;8.88;7.95;;;18.00;58.90;;;;;;5055941;28;20521;-78
2023/06/26 04:33:27;;;;;;;9.38;8.27;;;18.10;58.10;;;;;;5056011;28;20381;-80
2023/06/26 04:35:53;;;;;;;9.90;8.90;;;18.10;58.00;;;;;;5055918;28;20021;-72
2023/06/26 04:38:19;;;;;;;12.18;8.40;;;18.20;57.90;;;;;;5060313;28;20033;-72
2023/06/26 04:40:45;;;;;;;8.90;8.00;;;18.20;57.70;;;;;;5055690;28;20074;-72
2023/06/26 04:43:10;;;;;;;11.48;8.15;;;18.30;57.70;;;;;;5055738;28;20021;-79
2023/06/26 04:45:37;;;;;;;12.20;8.18;;;18.30;57.50;;;;;;5055596;28;20029;-77
2023/06/26 04:48:03;;;;;;;9.73;8.73;;;18.40;57.40;;;;;;5056642;28;20067;-74
2023/06/26 04:50:30;;;;;;;12.00;7.95;;;18.40;57.30;;;;;;5057136;28;20362;-71
2023/06/26 04:52:56;;;;;;;10.60;8.18;;;18.40;57.30;;;;;;5058328;28;20021;-74
2023/06/26 04:55:24;;;;;;;11.95;8.00;;;18.60;57.30;;;;;;5056524;28;20113;-81
2023/06/26 04:57:50;;;;;;;14.13;8.13;;;18.60;57.00;;;;;;5056253;28;20049;-72
2023/06/26 05:00:16;;;;;;;9.35;7.97;;;18.70;57.10;;;;;;5055715;28;20371;-81
2023/06/26 05:02:41;;;;;;;9.55;8.15;;;18.80;56.80;;;;;;5056121;28;20036;-79
2023/06/26 05:05:07;;;;;;;11.30;7.85;;;18.90;56.40;;;;;;5055701;28;20577;-80
2023/06/26 05:07:33;;;;;;;10.70;8.73;;;19.10;56.10;;;;;;5055743;28;20025;-74
2023/06/26 05:09:59;;;;;;;10.93;8.30;;;19.10;56.00;;;;;;5055481;28;20128;-74
2023/06/26 05:12:24;;;;;;;11.10;8.18;;;19.20;55.90;;;;;;5056237;28;20048;-72
2023/06/26 05:14:50;;;;;;;9.45;8.20;;;19.30;55.70;;;;;;5055971;28;20020;-72
2023/06/26 05:17:16;;;;;;;9.18;7.47;;;19.40;55.50;;;;;;5055072;28;20048;-72
2023/06/26 05:19:42;;;;;;;10.30;7.97;;;19.50;55.30;;;;;;5054827;28;20393;-81
2023/06/26 05:22:08;;;;;;;9.93;8.30;;;19.60;55.10;;;;;;5054764;28;20040;-77
2023/06/26 05:24:37;;;;;;;8.93;8.00;;;19.70;55.00;;;;;;5054697;28;20024;-77
2023/06/26 05:27:04;;;;;;;8.80;7.18;;;19.80;54.90;;;;;;5049292;28;20063;-76
2023/06/26 05:29:33;;;;;;;11.00;7.78;;;20.00;54.70;;;;;;5034288;28;20094;-72
2023/06/26 05:31:59;;;;;;;10.50;8.50;;;20.10;54.40;;;;;;5033641;28;20109;-77
2023/06/26 05:34:31;;;;;;;9.13;7.70;;;20.20;54.20;;;;;;5034337;28;20025;-78
2023/06/26 05:36:58;;;;;;;8.70;7.50;;;20.30;53.90;;;;;;5016835;28;20033;-76
2023/06/26 05:39:25;;;;;;;9.55;7.45;;;20.40;53.70;;;;;;5034897;28;20429;-72
2023/06/26 05:41:51;;;;;;;12.32;7.57;;;20.60;53.50;;;;;;5035228;28;20048;-75
2023/06/26 05:44:17;;;;;;;9.25;7.43;;;20.70;53.00;;;;;;5034439;28;20037;-72
2023/06/26 05:46:43;;;;;;;8.02;6.75;;;20.90;52.70;;;;;;5034497;28;20095;-75
2023/06/26 05:49:09;;;;;;;8.35;6.57;;;21.10;52.40;;;;;;5034525;28;20049;-76
2023/06/26 05:51:35;;;;;;;9.80;6.75;;;21.30;52.00;;;;;;5034193;28;20083;-80
2023/06/26 05:54:01;;;;;;;8.10;6.53;;;21.60;51.60;;;;;;5034482;28;20018;-78
2023/06/26 05:56:27;;;;;;;8.57;6.28;;;21.80;50.90;;;;;;5034364;28;20032;-76
2023/06/26 05:58:53;;;;;;;7.22;6.13;;;22.00;50.70;;;;;;5034553;28;20033;-71
2023/06/26 06:01:19;;;;;;;11.07;6.35;;;22.20;50.30;;;;;;5033958;28;20029;-69
2023/06/26 06:03:45;;;;;;;9.88;6.78;;;22.40;50.10;;;;;;5033671;28;20104;-70
2023/06/26 06:06:11;;;;;;;10.80;7.45;;;22.60;50.10;;;;;;5034246;28;20064;-81
2023/06/26 06:08:36;;;;;;;11.95;7.03;;;22.80;49.60;;;;;;5034328;28;20041;-73
2023/06/26 06:11:02;;;;;;;7.55;5.97;;;22.90;49.70;;;;;;5033842;28;20414;-79
2023/06/26 06:13:28;;;;;;;7.03;6.03;;;23.10;49.80;;;;;;5033595;28;20029;-69
2023/06/26 06:15:54;;;;;;;9.32;6.45;;;23.20;49.60;;;;;;5015745;28;20083;-69
2023/06/26 06:18:20;;;;;;;7.13;6.40;;;23.30;49.60;;;;;;5036212;28;20033;-69
2023/06/26 06:20:45;;;;;;;6.85;5.50;;;23.40;49.30;;;;;;5033657;28;20438;-68
2023/06/26 06:23:11;;;;;;;6.22;5.63;;;23.50;49.10;;;;;;5033383;28;20036;-67
2023/06/26 06:25:36;;;;;;;9.77;6.07;;;23.70;49.10;;;;;;5033645;28;20436;-68
2023/06/26 06:28:03;;;;;;;6.32;5.63;;;23.80;49.00;;;;;;5033694;28;20481;-67
2023/06/26 06:30:29;;;;;;;8.77;5.90;;;23.90;48.70;;;;;;5033804;28;20568;-69
2023/06/26 06:32:55;;;;;;;6.10;5.50;;;24.20;48.20;;;;;;5034057;28;20025;-81
2023/06/26 06:35:20;;;;;;;6.65;5.53;;;24.30;48.00;;;;;;5034727;28;20355;-83
2023/06/26 06:37:46;;;;;;;6.70;5.30;;;24.50;47.90;;;;;;5035340;28;20033;-78
2023/06/26 06:40:12;;;;;;;5.63;5.10;;;24.70;48.10;;;;;;5016747;28;20037;-81
2023/06/26 06:42:38;;;;;;;5.95;5.05;;;24.80;48.10;;;;;;5034969;28;20028;-82
2023/06/26 06:45:04;;;;;;;6.85;6.18;;;24.90;47.70;;;;;;5035688;28;20075;-82
2023/06/26 06:47:30;;;;;;;8.73;5.88;;;25.10;47.10;;;;;;5035483;28;20183;-73
2023/06/26 06:49:56;;;;;;;6.68;5.55;;;25.20;47.40;;;;;;5034421;28;20083;-78
2023/06/26 06:52:21;;;;;;;5.88;5.22;;;25.30;46.40;;;;;;5034022;28;20032;-74
2023/06/26 06:54:55;;;;;;;8.15;5.20;;;25.40;45.50;;;;;;5035887;28;20370;-72
2023/06/26 06:57:21;;;;;;;7.47;6.07;;;25.50;42.90;;;;;;5033487;28;20041;-77
2023/06/26 06:59:48;;;;;;;8.63;6.03;;;25.60;41.30;;;;;;5032934;28;20036;-74
2023/06/26 07:02:15;;;;;;;7.45;5.90;;;25.60;40.80;;;;;;5032453;28;20017;-71
2023/06/26 07:04:41;;;;;;;5.95;4.97;;;25.70;39.10;;;;;;5032264;28;20030;-69
2023/06/26 07:07:07;;;;;;;5.70;5.10;;;25.70;37.30;;;;;;5032749;28;20112;-78
2023/06/26 07:09:32;;;;;;;6.28;5.35;;;25.80;36.80;;;;;;5032674;28;20073;-69
2023/06/26 07:11:58;;;;;;;6.88;5.07;;;25.80;37.10;;;;;;5032569;28;20026;-68
2023/06/26 07:14:23;;;;;;;5.32;4.85;;;25.90;37.70;;;;;;5032816;28;20021;-72
2023/06/26 07:16:49;;;;;;;5.90;5.30;;;26.00;36.80;;;;;;5032361;28;20088;-69
2023/06/26 07:19:15;;;;;;;10.73;5.63;;;26.00;37.50;;;;;;5014657;28;20079;-68
2023/06/26 07:21:41;;;;;;;8.30;5.28;;;26.10;37.20;;;;;;5032569;28;20079;-68
2023/06/26 07:24:07;;;;;;;9.13;5.70;;;26.10;36.70;;;;;;5032485;28;20036;-68
2023/06/26 07:26:32;;;;;;;6.00;5.00;;;26.10;36.10;;;;;;5032737;28;20108;-77
2023/06/26 07:28:58;;;;;;;7.65;5.13;;;26.10;36.30;;;;;;5033075;28;20181;-77
2023/06/26 07:31:23;;;;;;;5.18;4.72;;;26.10;36.00;;;;;;5032508;28;20454;-77
2023/06/26 07:33:49;;;;;;;8.23;5.50;;;26.20;36.50;;;;;;5017685;28;20522;-76
2023/06/26 07:36:15;;;;;;;6.57;5.80;;;26.30;36.50;;;;;;5032539;28;20105;-76
2023/06/26 07:38:40;;;;;;;7.45;5.10;;;26.30;35.70;;;;;;5032462;28;20577;-77
2023/06/26 07:41:06;;;;;;;6.65;5.15;;;26.30;36.40;;;;;;5032720;28;20056;-78
2023/06/26 07:43:31;;;;;;;5.90;5.28;;;26.40;36.00;;;;;;5032399;28;20033;-68
2023/06/26 07:45:58;;;;;;;8.55;5.22;;;26.40;35.90;;;;;;5014534;28;20032;-71
2023/06/26 07:48:24;;;;;;;7.30;5.25;;;26.40;36.10;;;;;;5014554;28;20049;-69
2023/06/26 07:50:50;;;;;;;7.28;5.28;;;26.50;36.00;;;;;;5035655;28;20383;-72
2023/06/26 07:53:16;;;;;;;6.03;5.40;;;26.50;35.70;;;;;;5036087;28;20036;-69
2023/06/26 07:55:42;;;;;;;9.23;5.43;;;26.50;36.10;;;;;;5036582;28;20403;-72
2023/06/26 07:58:08;;;;;;;5.53;4.97;;;26.60;36.60;;;;;;5035982;28;20037;-69
2023/06/26 08:00:34;;;;;;;8.20;5.18;;;26.60;36.80;;;;;;5034631;28;20038;-68
2023/06/26 08:02:59;;;;;;;8.40;5.18;;;26.70;36.10;;;;;;5035694;28;20083;-69
2023/06/26 08:05:25;;;;;;;7.20;4.70;;;26.80;35.90;;;;;;5035950;28;20021;-70
2023/06/26 08:07:51;;;;;;;7.05;5.65;;;26.90;36.00;;;;;;5035838;28;20463;-72
2023/06/26 08:10:17;;;;;;;6.00;5.40;;;26.90;36.00;;;;;;5018769;28;20026;-73
2023/06/26 08:12:44;;;;;;;7.43;5.25;;;26.90;36.70;;;;;;5018630;28;20036;-73
2023/06/26 08:15:11;;;;;;;7.57;5.45;;;27.10;36.50;;;;;;5018557;28;20029;-75
2023/06/26 08:17:37;;;;;;;6.53;5.47;;;27.10;36.40;;;;;;5018397;28;20175;-75
2023/06/26 08:20:03;;;;;;;7.82;5.63;;;27.00;36.20;;;;;;5017551;28;20104;-72
2023/06/26 08:22:29;;;;;;;11.00;5.53;;;26.90;35.30;;;;;;5018730;28;20076;-85
2023/06/26 08:24:55;;;;;;;6.65;5.38;;;27.00;36.90;;;;;;5019399;28;20029;-75
2023/06/26 08:27:21;;;;;;;12.00;5.55;;;27.00;37.10;;;;;;5019385;28;20116;-86
2023/06/26 08:29:47;;;;;;;6.22;5.38;;;27.00;37.00;;;;;;5019235;28;20383;-73
2023/06/26 08:32:12;;;;;;;6.53;5.65;;;27.00;36.80;;;;;;5017859;28;20433;-82
2023/06/26 08:34:38;;;;;;;8.43;5.75;;;27.10;36.60;;;;;;5018281;28;20053;-77
2023/06/26 08:37:03;;;;;;;7.53;6.43;;;27.10;36.20;;;;;;5018192;28;20025;-83
2023/06/26 08:39:29;;;;;;;5.90;5.35;;;27.10;35.90;;;;;;5017949;28;20061;-73
2023/06/26 08:41:55;;;;;;;8.07;5.20;;;27.00;36.20;;;;;;5018102;28;20071;-82
2023/06/26 08:44:24;;;;;;;10.45;5.88;;;27.10;37.00;;;;;;5035786;28;20029;-83
2023/06/26 08:46:51;;;;;;;7.30;5.80;;;27.20;37.00;;;;;;5018923;28;20033;-83
2023/06/26 08:49:43;;;;;;;6.30;5.70;;;27.20;36.50;;;;;;5035852;28;20084;-86
2023/06/26 08:52:17;;;;;;;11.20;5.78;;;27.30;36.50;;;;;;5019007;28;20060;-74
2023/06/26 08:54:47;;;;;;;46.03;8.68;;;27.40;36.50;;;;;;5020318;28;20480;-74
2023/06/26 08:57:18;;;;;;;19.23;6.03;;;27.50;36.10;;;;;;5008976;28;20032;-73
2023/06/26 08:59:45;;;;;;;6.93;5.60;;;27.60;36.00;;;;;;5015404;28;20037;-73
2023/06/26 09:02:12;;;;;;;9.55;6.00;;;27.40;35.70;;;;;;4997273;28;20033;-75
2023/06/26 09:04:39;;;;;;;10.75;5.90;;;27.40;36.60;;;;;;4998498;28;20030;-73
2023/06/26 09:07:05;;;;;;;8.82;5.65;;;27.60;36.70;;;;;;4997326;28;20022;-73
2023/06/26 09:09:30;;;;;;;6.68;5.50;;;27.70;36.10;;;;;;4997672;28;20173;-73
2023/06/26 09:11:56;;;;;;;6.40;5.50;;;27.80;35.20;;;;;;5014631;28;20425;-73
2023/06/26 09:14:23;;;;;;;11.02;5.22;;;27.70;34.40;;;;;;4997814;28;20037;-84
2023/06/26 09:16:48;;;;;;;6.40;5.03;;;27.80;34.50;;;;;;4999029;28;20116;-75
2023/06/26 09:19:14;;;;;;;6.90;5.35;;;28.00;34.70;;;;;;4998540;28;20121;-84
2023/06/26 09:21:41;;;;;;;6.47;4.82;;;27.90;34.00;;;;;;5016691;28;20038;-82
2023/06/26 09:24:10;;;;;;;8.98;5.70;;;28.00;33.90;;;;;;4996918;28;20030;-74
2023/06/26 09:26:37;;;;;;;9.73;5.47;;;27.90;32.10;;;;;;4997012;28;20022;-75
2023/06/26 09:29:04;;;;;;;6.85;6.15;;;28.00;33.10;;;;;;4997437;28;20022;-83
2023/06/26 09:31:30;;;;;;;7.10;5.43;;;27.90;32.20;;;;;;5014807;28;20026;-76
2023/06/26 09:34:02;;;;;;;7.55;5.50;;;27.90;32.60;;;;;;4997035;28;20519;-73
2023/06/26 09:36:32;;;;;;;6.63;5.72;;;28.10;33.10;;;;;;4997625;28;20080;-74
2023/06/26 09:39:02;;;;;;;5.53;4.97;;;28.20;32.90;;;;;;4996825;28;20514;-78
2023/06/26 09:41:28;;;;;;;6.18;5.57;;;28.20;32.50;;;;;;5014655;28;20022;-74
2023/06/26 09:43:55;;;;;;;6.00;5.40;;;28.20;32.60;;;;;;5005051;28;20026;-73
2023/06/26 09:46:28;;;;;;;6.78;5.85;;;28.30;31.80;;;;;;4997178;28;20083;-74
2023/06/26 09:49:06;;;;;;;5.65;5.15;;;28.20;31.80;;;;;;5002625;28;20030;-73
2023/06/26 09:51:33;;;;;;;6.70;5.57;;;28.40;32.60;;;;;;5002067;28;20441;-73
2023/06/26 09:53:59;;;;;;;6.55;5.10;;;28.50;32.00;;;;;;4999236;28;20029;-72
2023/06/26 09:56:25;;;;;;;8.63;5.38;;;28.60;32.10;;;;;;4997074;28;20022;-74
2023/06/26 09:58:51;;;;;;;5.90;5.30;;;28.70;32.50;;;;;;4999099;28;20033;-73
2023/06/26 10:01:18;;;;;;;6.43;5.40;;;28.90;31.90;;;;;;5026514;28;20501;-73
2023/06/26 10:03:44;;;;;;;6.90;5.28;;;29.10;31.60;;;;;;5033216;28;20021;-73
2023/06/26 10:06:11;;;;;;;6.40;5.80;;;29.10;30.00;;;;;;5033206;28;20026;-73
2023/06/26 10:08:39;;;;;;;6.82;5.60;;;29.20;30.80;;;;;;5032880;28;20053;-74
2023/06/26 10:11:05;;;;;;;6.85;5.97;;;29.20;30.90;;;;;;5033011;28;20025;-74
2023/06/26 10:13:39;;;;;;;7.68;5.97;;;29.30;30.30;;;;;;5032255;28;20076;-73
2023/06/26 10:16:07;;;;;;;7.78;5.80;;;29.20;30.70;;;;;;5015664;28;20022;-73
2023/06/26 10:18:34;;;;;;;6.28;5.65;;;29.10;30.90;;;;;;5026806;28;20041;-73
2023/06/26 10:21:03;;;;;;;15.70;5.82;;;29.20;30.50;;;;;;5021751;28;20033;-73
2023/06/26 10:23:30;;;;;;;6.05;5.55;;;29.20;30.70;;;;;;5021815;28;20013;-75
2023/06/26 10:25:58;;;;;;;11.10;6.18;;;29.40;31.50;;;;;;5026973;28;20120;-79
2023/06/26 10:28:28;;;;;;;10.63;5.57;;;29.70;30.10;;;;;;5032753;28;20025;-73
2023/06/26 10:30:55;;;;;;;14.95;6.18;;;29.60;29.80;;;;;;5009472;28;20033;-76
2023/06/26 10:33:21;;;;;;;7.72;5.90;;;29.70;30.00;;;;;;5005981;28;20017;-75
2023/06/26 10:35:47;;;;;;;10.95;6.55;;;29.80;29.80;;;;;;4999363;28;20061;-75
2023/06/26 10:38:12;;;;;;;8.63;6.05;;;29.80;29.70;;;;;;5023453;28;20123;-77
2023/06/26 10:40:44;;;;;;;6.57;5.72;;;29.60;30.20;;;;;;5007093;28;20041;-71
2023/06/26 10:43:11;;;;;;;7.60;6.22;;;29.10;31.20;;;;;;5022834;28;20486;-77
2023/06/26 10:45:42;;;;;;;7.45;6.20;;;29.10;31.50;;;;;;5022088;28;20069;-82
2023/06/26 10:48:07;;;;;;;7.90;6.50;;;29.30;31.30;;;;;;5022494;28;20092;-71
2023/06/26 10:50:35;;;;;;;6.70;6.00;;;29.50;30.90;;;;;;5026600;28;20147;-73
2023/06/26 10:53:21;;;;;;;9.23;6.40;;;29.60;31.10;;;;;;5005902;28;20033;-78
2023/06/26 10:55:56;;;;;;;7.07;6.03;;;29.50;31.00;;;;;;5020974;28;20424;-72
2023/06/26 10:58:30;;;;;;;8.10;6.78;;;29.50;31.60;;;;;;5013514;28;20114;-78
2023/06/26 11:01:11;;;;;;;8.63;7.05;;;29.60;31.40;;;;;;5013432;28;20405;-72
2023/06/26 11:03:40;;;;;;;8.02;6.82;;;29.70;31.40;;;;;;5013328;28;20023;-80
2023/06/26 11:06:13;;;;;;;9.52;7.10;;;29.80;30.80;;;;;;5013319;28;20026;-73
2023/06/26 11:08:55;;;;;;;13.18;7.10;;;30.00;31.70;;;;;;5013117;28;20053;-74
2023/06/26 11:11:53;;;;;;;7.00;6.35;;;30.10;32.70;;;;;;5013246;28;20167;-73
2023/06/26 11:14:20;;;;;;;12.23;7.47;;;30.10;32.10;;;;;;5013075;28;20021;-72
2023/06/26 11:16:45;;;;;;;7.38;6.53;;;30.40;31.70;;;;;;5013030;28;20050;-75
2023/06/26 11:19:13;;;;;;;7.28;6.53;;;29.80;32.60;;;;;;4995061;28;20065;-70
2023/06/26 11:21:39;;;;;;;7.30;6.10;;;29.90;33.10;;;;;;5013128;28;20030;-80
2023/06/26 11:24:06;;;;;;;9.30;6.75;;;30.00;32.90;;;;;;5013104;28;20429;-74
2023/06/26 11:26:41;;;;;;;8.50;6.75;;;30.10;32.10;;;;;;5012783;28;20105;-74
2023/06/26 11:29:07;;;;;;;7.03;6.32;;;30.20;32.70;;;;;;4995162;28;20034;-75
2023/06/26 11:31:41;;;;;;;9.70;7.03;;;30.10;32.50;;;;;;5013003;28;20037;-72
2023/06/26 11:34:10;;;;;;;8.13;5.90;;;29.80;31.80;;;;;;5012991;28;20030;-72
2023/06/26 11:36:36;;;;;;;7.90;6.68;;;29.80;32.40;;;;;;5013114;28;20018;-72
2023/06/26 11:39:06;;;;;;;8.00;6.63;;;29.60;32.70;;;;;;4994862;28;20497;-72
2023/06/26 11:41:33;;;;;;;7.90;6.30;;;29.70;32.40;;;;;;5012821;28;20041;-74
2023/06/26 11:44:03;;;;;;;9.93;6.35;;;30.00;32.30;;;;;;5012867;28;20486;-72
2023/06/26 11:46:30;;;;;;;6.70;6.10;;;30.00;32.70;;;;;;5013476;28;20084;-71
2023/06/26 11:48:55;;;;;;;10.70;6.30;;;30.10;33.00;;;;;;5012527;28;20045;-72
2023/06/26 11:51:21;;;;;;;7.68;6.90;;;30.00;34.10;;;;;;4995471;28;20072;-71
2023/06/26 11:53:47;;;;;;;10.23;6.57;;;30.00;33.50;;;;;;5012888;28;20034;-71
2023/06/26 11:56:15;;;;;;;9.90;5.72;;;30.20;34.20;;;;;;5012995;28;20022;-78
2023/06/26 11:58:56;;;;;;;8.88;6.63;;;30.30;33.40;;;;;;5012546;28;20040;-72
2023/06/26 12:01:22;;;;;;;7.85;6.55;;;30.20;33.20;;;;;;5012620;28;20056;-78
2023/06/26 12:03:49;;;;;;;8.90;6.55;;;30.20;33.40;;;;;;5013185;28;20026;-74
2023/06/26 12:06:15;;;;;;;9.82;6.40;;;30.20;33.70;;;;;;5012962;28;20080;-72
2023/06/26 12:08:41;;;;;;;9.98;6.95;;;30.30;34.20;;;;;;5012655;28;20081;-72
2023/06/26 12:11:07;;;;;;;9.55;6.57;;;30.30;33.30;;;;;;5012900;28;20101;-73
2023/06/26 12:13:33;;;;;;;9.30;6.88;;;30.60;32.40;;;;;;5012771;28;20104;-72
2023/06/26 12:15:59;;;;;;;8.90;7.10;;;30.10;33.10;;;;;;5012296;28;20360;-72
2023/06/26 12:18:26;;;;;;;8.95;6.90;;;30.20;33.60;;;;;;5012596;28;20045;-72
2023/06/26 12:20:52;;;;;;;13.50;6.80;;;30.00;33.40;;;;;;4995021;28;20026;-74
2023/06/26 12:23:17;;;;;;;9.80;7.20;;;29.40;34.40;;;;;;5012705;28;20080;-76
2023/06/26 12:25:43;;;;;;;7.90;7.03;;;29.30;35.30;;;;;;5012770;28;20026;-71
2023/06/26 12:28:17;;;;;;;7.82;7.03;;;29.50;34.70;;;;;;4995082;28;20064;-74
2023/06/26 12:30:46;;;;;;;9.98;7.20;;;29.60;35.90;;;;;;5013076;28;20037;-75
2023/06/26 12:33:15;;;;;;;7.50;6.88;;;29.80;34.60;;;;;;5012973;28;20374;-80
2023/06/26 12:35:43;;;;;;;7.70;6.88;;;29.80;34.20;;;;;;5014044;28;20161;-71
2023/06/26 12:38:15;;;;;;;7.88;7.03;;;30.00;34.50;;;;;;5016295;28;20029;-72
2023/06/26 12:40:45;;;;;;;8.10;6.65;;;30.10;34.80;;;;;;5016174;28;20045;-71
2023/06/26 12:43:11;;;;;;;7.25;6.60;;;30.40;33.40;;;;;;5016310;28;20447;-73